Paya Lebar Air Base

WSAP · Singapore

METAR history WSAP · Paya Lebar Air Base

Below you see METARs of the last few days. Select a year to browse through older METARs, from the year 2007 onwards.

May 29, 2024

Time Code Weather Temp. Visibility Ceiling Wind METAR/SPECI
10:00
V
32 °C 10 km+ 30,000 ft 150° 150° 7 kt METAR WSAP 290200Z 15007KT 9999 FEW020 BKN300 32/26 Q1010
09:00
V
30 °C 10 km+ 30,000 ft 140° 140° 6 kt METAR WSAP 290100Z 14006KT 9999 SCT018 BKN300 30/26 Q1010
08:00
V
30 °C 10 km+ 30,000 ft 150° 150° 4 kt METAR WSAP 290000Z 15004KT 9999 FEW018 BKN300 30/26 Q1009
07:00
V
29 °C 10 km+ 30,000 ft 170° 170° 4 kt METAR WSAP 282300Z 17004KT 9999 FEW015 BKN300 29/26 Q1009
06:00
V
28 °C 10 km+ 15,000 ft 130° 130° 1 kt METAR WSAP 282200Z 13001KT 9999 FEW015 BKN150 28/26 Q1008
05:00
V
28 °C 10 km+ 15,000 ft 300° 300° 2 kt METAR WSAP 282100Z 30002KT 9999 FEW015 BKN150 28/26 Q1008
04:00
V
28 °C 10 km+ 15,000 ft 100° 100° 2 kt METAR WSAP 282000Z 10002KT 9999 FEW016 BKN150 28/26 Q1007
03:00
V
28 °C 10 km+ 15,000 ft 020° 020° 2 kt METAR WSAP 281900Z 02002KT 9999 FEW016 BKN150 28/25 Q1008
02:00
V
28 °C 10 km+ 15,000 ft 090° 090° 4 kt METAR WSAP 281800Z 09004KT 9999 FEW018 BKN150 28/25 Q1008
01:00
V
28 °C 10 km+ 30,000 ft 330° 330° 1 kt METAR WSAP 281700Z 33001KT 9999 FEW018 SCT150 BKN300 28/25 Q1009
00:00
V
28 °C 10 km+ 30,000 ft 300° 300° 1 kt METAR WSAP 281600Z 30001KT 9999 FEW018 BKN300 28/24 Q1010

May 28, 2024

Time Code Weather Temp. Visibility Ceiling Wind METAR/SPECI
23:00
V
28 °C 10 km+ 30,000 ft 010° 010° 2 kt METAR WSAP 281500Z 01002KT 9999 FEW018 SCT150 BKN300 28/24 Q1010
22:00
V
28 °C 10 km+ 28,000 ft 060° 060° 3 kt METAR WSAP 281400Z 06003KT 9999 FEW018 BKN280 28/25 Q1010
21:00
V
29 °C 10 km+ - 040° 040° 4 kt METAR WSAP 281300Z 04004KT 9999 FEW018 SCT150 29/25 Q1010
20:00
V
30 °C 10 km+ 15,000 ft 320° 320° 3 kt METAR WSAP 281200Z 32003KT 9999 FEW018 BKN150 30/25 Q1009
19:00
V
31 °C 10 km+ 15,000 ft 130° 130° 5 kt METAR WSAP 281100Z 13005KT 9999 FEW017 BKN150 31/25 Q1008
18:00
V
31 °C 10 km+ - 180° 180° 4 kt METAR WSAP 281000Z 18004KT 9999 FEW017CB FEW018TCU SCT160 31/25 Q1007
17:00
V
30 °C 10 km+ - 120° 120° 3 kt METAR WSAP 280900Z 12003KT 9999 FEW016CB FEW017TCU SCT260 30/25 Q1007
16:00
V
30 °C 10 km+ 15,000 ft 140° 140° 7 kt METAR WSAP 280800Z 14007KT 9999 -RA FEW016CB FEW017TCU BKN150 30/23 Q1007 RETS
15:10
V
31 °C 10 km+ - 140° 140° 16 kt METAR WSAP 280710Z 14016KT 9999 VCTS FEW015CB SCT016 FEW016TCU 31/23 Q1008
15:00
V
33 °C 10 km+ - 170° 170° 9 kt METAR WSAP 280700Z 17009KT 9999 VCTS FEW016CB FEW018TCU SCT018 33/25 Q1008
14:41
V
33 °C 10 km+ - 190° 190° 5 kt METAR WSAP 280641Z 19005KT 9999 VCTS FEW016CB FEW018TCU SCT160 33/26 Q1008
14:00
V
33 °C 10 km+ 16,000 ft 190° 190° 5 kt METAR WSAP 280600Z 19005KT 9999 VCSH FEW017TCU SCT018 BKN160 33/25 Q1009
13:00
V
32 °C 10 km+ 15,000 ft 140° 140° 4 kt METAR WSAP 280500Z 14004KT 9999 FEW018 BKN150 32/26 Q1009
12:00
V
32 °C 10 km+ 15,000 ft 140° 140° 6 kt METAR WSAP 280400Z 14006KT 9999 FEW018 BKN150 32/25 Q1010
11:00
V
32 °C 10 km+ 15,000 ft 140° 140° 6 kt METAR WSAP 280300Z 14006KT 9999 FEW018 BKN150 32/26 Q1010
10:00
V
31 °C 10 km+ 15,000 ft 130° 130° 6 kt METAR WSAP 280200Z 13006KT 9999 FEW018 BKN150 31/26 Q1010
09:00
V
31 °C 10 km+ 15,000 ft 150° 150° 5 kt METAR WSAP 280100Z 15005KT 9999 FEW016 BKN150 31/26 Q1010
08:00
V
30 °C 10 km+ 15,000 ft 140° 140° 5 kt METAR WSAP 280000Z 14005KT 9999 FEW016 BKN150 30/26 Q1010
07:00
V
29 °C 10 km+ 15,000 ft 140° 140° 5 kt METAR WSAP 272300Z 14005KT 9999 FEW018 BKN150 29/26 Q1009
06:00
V
29 °C 10 km+ 15,000 ft 140° 140° 5 kt METAR WSAP 272200Z 14005KT 9999 FEW018 BKN150 29/26 Q1009
05:00
V
30 °C 10 km+ 15,000 ft 130° 130° 4 kt METAR WSAP 272100Z 13004KT 9999 FEW018 BKN150 30/25 Q1009
04:00
V
30 °C 10 km+ 15,000 ft 140° 140° 4 kt METAR WSAP 272000Z 14004KT 9999 FEW018 BKN150 30/25 Q1009
03:00
V
30 °C 10 km+ 15,000 ft 150° 150° 3 kt METAR WSAP 271900Z 15003KT 9999 FEW018 BKN150 30/26 Q1009
02:00
V
30 °C 10 km+ 15,000 ft 140° 140° 3 kt METAR WSAP 271800Z 14003KT 9999 FEW018 BKN150 30/25 Q1010
01:00
V
30 °C 10 km+ 15,000 ft 120° 120° 5 kt METAR WSAP 271700Z 12005KT 9999 FEW018 BKN150 30/25 Q1010
00:00
V
30 °C 10 km+ 15,000 ft 120° 120° 6 kt METAR WSAP 271600Z 12006KT 9999 FEW018 BKN150 30/25 Q1011

May 27, 2024

Time Code Weather Temp. Visibility Ceiling Wind METAR/SPECI
23:00
V
30 °C 10 km+ 15,000 ft 130° 130° 5 kt METAR WSAP 271500Z 13005KT 9999 FEW018 BKN150 30/25 Q1010
22:00
V
30 °C 10 km+ 15,000 ft 140° 140° 7 kt METAR WSAP 271400Z 14007KT 9999 FEW018 BKN150 30/25 Q1010
21:00
V
30 °C 10 km+ 15,000 ft 130° 130° 6 kt METAR WSAP 271300Z 13006KT 9999 FEW018 BKN150 30/25 Q1009
20:00
V
31 °C 10 km+ 15,000 ft 140° 140° 8 kt METAR WSAP 271200Z 14008KT 9999 FEW018 BKN150 31/25 Q1009
19:00
V
31 °C 10 km+ 15,000 ft 140° 140° 7 kt METAR WSAP 271100Z 14007KT 9999 FEW018 BKN150 31/25 Q1008
18:00
V
31 °C 10 km+ 15,000 ft 130° 130° 7 kt METAR WSAP 271000Z 13007KT 9999 FEW018 BKN150 31/24 Q1008
17:00
V
32 °C 10 km+ 30,000 ft 130° 130° 7 kt METAR WSAP 270900Z 13007KT 9999 FEW018TCU SCT150 BKN300 32/23 Q1007
16:00
V
31 °C 10 km+ 30,000 ft 130° 130° 8 kt METAR WSAP 270800Z 13008KT 9999 FEW018 FEW020TCU BKN300 31/24 Q1008
15:00
V
31 °C 10 km+ 14,000 ft 120° 120° 6 kt METAR WSAP 270700Z 12006KT 9999 FEW018 BKN140 31/23 Q1008
14:00
V
33 °C 10 km+ 30,000 ft 140° 140° 8 kt METAR WSAP 270600Z 14008KT 9999 VCSH FEW018CB FEW020TCU BKN300 33/25 Q1008 RETS
13:32
V
33 °C 10 km+ 30,000 ft 140° 140° 6 kt METAR WSAP 270532Z 14006KT 9999 VCTS FEW018CB FEW020TCU BKN300 33/24 Q1009
13:00
V
33 °C 10 km+ 30,000 ft 120° 120° 5 kt METAR WSAP 270500Z 12005KT 9999 FEW018 FEW020TCU BKN300 33/25 Q1009
12:00
V
32 °C 10 km+ 30,000 ft 130° 130° 7 kt METAR WSAP 270400Z 13007KT 9999 FEW018 FEW020TCU BKN300 32/25 Q1010
11:00
V
32 °C 10 km+ 30,000 ft 110° 110° 6 kt METAR WSAP 270300Z 11006KT 9999 FEW018 BKN300 32/25 Q1010
10:00
V
31 °C 10 km+ 30,000 ft 150° 150° 6 kt METAR WSAP 270200Z 15006KT 9999 FEW018 BKN300 31/26 Q1011
09:00
V
30 °C 10 km+ 15,000 ft 140° 140° 6 kt METAR WSAP 270100Z 14006KT 9999 FEW016 BKN150 30/26 Q1010
08:00
V
30 °C 10 km+ 15,000 ft 140° 140° 3 kt METAR WSAP 270000Z 14003KT 9999 FEW016 BKN150 30/26 Q1009
07:00
V
29 °C 10 km+ 15,000 ft 110° 110° 3 kt METAR WSAP 262300Z 11003KT 9999 FEW016 BKN150 29/26 Q1009
06:00
V
29 °C 10 km+ 15,000 ft 110° 110° 3 kt METAR WSAP 262200Z 11003KT 9999 FEW016 BKN150 29/26 Q1008
05:00
V
29 °C 10 km+ 15,000 ft 130° 130° 3 kt METAR WSAP 262100Z 13003KT 9999 FEW016 BKN150 29/25 Q1008
04:00
V
29 °C 10 km+ 14,000 ft 130° 130° 3 kt METAR WSAP 262000Z 13003KT 9999 FEW017 SCT060 BKN140 29/25 Q1008
03:00
V
29 °C 10 km+ 16,000 ft 120° 120° 3 kt METAR WSAP 261900Z 12003KT 9999 FEW016 BKN160 29/25 Q1008
02:00
V
29 °C 10 km+ 30,000 ft 130° 130° 4 kt METAR WSAP 261800Z 13004KT 9999 FEW016 SCT160 BKN300 29/26 Q1009
01:00
V
30 °C 10 km+ 15,000 ft 120° 120° 4 kt METAR WSAP 261700Z 12004KT 9999 SCT016 BKN150 30/26 Q1010
00:00
V
30 °C 10 km+ 14,000 ft 130° 130° 3 kt METAR WSAP 261600Z 13003KT 9999 FEW017 BKN140 30/26 Q1010

May 26, 2024

Time Code Weather Temp. Visibility Ceiling Wind METAR/SPECI
23:00
V
30 °C 10 km+ 14,000 ft 130° 130° 4 kt METAR WSAP 261500Z 13004KT 9999 FEW017 SCT060 BKN140 30/26 Q1010
22:00
V
30 °C 10 km+ 15,000 ft 110° 110° 3 kt METAR WSAP 261400Z 11003KT 9999 FEW017 BKN150 30/25 Q1010
21:00
V
30 °C 10 km+ 14,000 ft 110° 110° 5 kt METAR WSAP 261300Z 11005KT 9999 FEW017 BKN140 30/26 Q1009
20:00
V
30 °C 10 km+ 15,000 ft 140° 140° 5 kt METAR WSAP 261200Z 14005KT 9999 FEW018 BKN150 30/26 Q1009
19:00
V
30 °C 10 km+ 15,000 ft 120° 120° 4 kt METAR WSAP 261100Z 12004KT 9999 FEW018 BKN150 30/25 Q1008
18:00
V
31 °C 10 km+ 15,000 ft 130° 130° 5 kt METAR WSAP 261000Z 13005KT 9999 FEW018 BKN150 31/25 Q1008
17:00
V
31 °C 10 km+ 15,000 ft 120° 120° 6 kt METAR WSAP 260900Z 12006KT 9999 FEW018 BKN150 31/26 Q1008
16:00
V
31 °C 10 km+ 15,000 ft 130° 130° 7 kt METAR WSAP 260800Z 13007KT 9999 FEW018 BKN150 31/25 Q1008
15:00
V
32 °C 10 km+ 15,000 ft 100° 100° 6 kt METAR WSAP 260700Z 10006KT 9999 FEW018 BKN150 32/26 Q1008
14:00
V
33 °C 10 km+ 15,000 ft 100° 100° 7 kt METAR WSAP 260600Z 10007KT 9999 FEW018 BKN150 33/24 Q1009
Report a change